Flight Track Log - Related Links

Times and Time Zones

All times are in EDT time to prevent confusion due to time zone crossing. See the ASQ4253 flight status page for this flight to view local times or setup timezone preferences in your user account.

Time Position Orientation Groundspeed Altitude Reporting Facility
EDT Latitude Longitude Course Direction KTS MPH feet Rate Location/Type
Thu 03:35:32 PM 29.9614 -95.3411 95° East 159 183 600  Level Houston Center
Thu 03:36:33 PM 29.9219 -95.3003 138° Southeast 205 236 2,000 1,277 Climbing Houston Center
Thu 03:37:06 PM 29.8989 -95.2694 131° Southeast 228 262 2,600 1,548 Climbing Houston Center
Thu 03:37:35 PM 29.8725 -95.2411 137° Southeast 261 300 3,600 1,355 Climbing Houston Center
Thu 03:38:00 PM 29.9264 -94.9544 97° East  Level FlightAware Approximate
Thu 03:38:08 PM 29.8539 -95.2044 120° Southeast 250 288 4,000  Level Houston Center
Thu 03:38:30 PM 29.8469 -95.1694 103° East 263 303 4,000 387 Level Houston Center
Thu 03:39:00 PM 29.9134 -94.8271 95° East  Level FlightAware Approximate
Thu 03:39:10 PM 29.8519 -95.1211 83° East 260 299 4,400  Level Houston Center
Thu 03:39:37 PM 29.8489 -95.0778 95° East 274 315 5,800 2,516 Climbing Houston Center
Thu 03:40:00 PM 29.9028 -94.6995 95° East  Level FlightAware Approximate
Thu 03:40:12 PM 29.8508 -95.0369 87° East 262 302 7,000  Level Houston Center
Thu 03:40:38 PM 29.8517 -94.9956 89° East 258 297 8,100 1,742 Climbing Houston Center
Thu 03:41:14 PM 29.8528 -94.9525 88° East 262 302 8,800 1,347 Climbing Houston Center
Thu 03:42:16 PM 29.8542 -94.8617 89° East 279 321 10,300 1,016 Climbing Houston Center
Thu 03:43:18 PM 29.8564 -94.7614 89° East 313 360 10,900 919 Climbing Houston Center
Thu 03:44:20 PM 29.8583 -94.6297 89° East 341 392 12,200 1,306 Climbing Houston Center
Thu 03:45:22 PM 29.8597 -94.5203 89° East 341 392 13,600 1,161 Climbing Houston Center
Thu 03:46:24 PM 29.8614 -94.4100 89° East 344 396 14,600 1,016 Climbing Houston Center
Thu 03:47:26 PM 29.8608 -94.3000 90° East 345 397 15,700 1,056 Climbing Houston Center
Thu 03:48:29 PM 29.8578 -94.1736 92° East 350 403 16,800 960 Climbing Houston Center
Thu 03:49:31 PM 29.8536 -94.0611 92° East 353 406 17,700 968 Climbing Houston Center
Thu 03:50:33 PM 29.8642 -93.9508 84° East 350 403 18,800 1,016 Climbing Houston Center
Thu 03:51:35 PM 29.8758 -93.8353 83° East 362 417 19,800 1,016 Climbing Houston Center
Thu 03:52:37 PM 29.8875 -93.7217 83° East 361 415 20,900 1,113 Climbing Houston Center
Thu 03:53:39 PM 29.9011 -93.5833 83° East 364 419 22,100 1,065 Climbing Houston Center
Thu 03:54:41 PM 29.9131 -93.4683 83° East 364 419 23,100 1,008 Climbing Houston Center
Thu 03:55:44 PM 29.9258 -93.3531 83° East 366 421 24,200 1,008 Climbing Houston Center
Thu 03:56:46 PM 29.9372 -93.2375 83° East 366 421 25,200 968 Climbing Houston Center
Thu 03:57:48 PM 29.9531 -93.1214 81° East 368 423 26,200 1,113 Climbing Houston Center
Thu 03:58:50 PM 29.9797 -92.9831 77° East 370 426 27,500 1,113 Climbing Houston Center
Thu 03:59:52 PM 30.0000 -92.8681 78° East 370 426 28,500 968 Climbing Houston Center
Thu 04:00:54 PM 30.0203 -92.7514 79° East 371 427 29,500 1,016 Climbing Houston Center
Thu 04:01:56 PM 30.0419 -92.6339 78° East 375 432 30,600 1,016 Climbing Houston Center
Thu 04:02:58 PM 30.0636 -92.5150 78° East 378 435 31,600 1,104 Climbing Houston Center
Thu 04:04:01 PM 30.0878 -92.3739 79° East 377 434 32,900 1,104 Climbing Houston Center
Thu 04:05:03 PM 30.1089 -92.2542 78° East 380 437 33,900 968 Climbing Houston Center
Thu 04:06:05 PM 30.1297 -92.1378 78° East 375 432 34,900 532 Climbing Houston Center
Thu 04:07:07 PM 30.1500 -92.0172 79° East 379 436 35,000 48 Climbing Houston Center
Thu 04:08:09 PM 30.1725 -91.8894 78° East 397 457 35,000  Level Houston Center
Thu 04:09:11 PM 30.1944 -91.7547 79° East 421 484 35,000 -48 Level Houston Center
Thu 04:10:13 PM 30.2247 -91.5886 78° East 433 498 34,900  Descending Houston Center
Thu 04:11:15 PM 30.2464 -91.4511 80° East 436 502 35,000  Climbing Houston Center
Thu 04:12:18 PM 30.2689 -91.3186 79° East 426 490 34,900  Descending Houston Center
Thu 04:13:20 PM 30.2906 -91.1878 79° East 417 480 35,000 48 Climbing Houston Center
Thu 04:14:22 PM 30.3122 -91.0592 79° East 409 471 35,000  Level Houston Center
Thu 04:15:24 PM 30.3372 -90.8997 80° East 424 488 35,000  Level Houston Center
Thu 04:16:26 PM 30.3597 -90.7639 79° East 430 495 35,000  Level Houston Center
Thu 04:17:28 PM 30.3828 -90.6250 79° East 438 504 35,000  Level Houston Center
Thu 04:18:30 PM 30.4050 -90.4831 80° East 446 513 35,000  Level Houston Center
Thu 04:19:32 PM 30.4286 -90.3414 79° East 447 514 35,000  Level Houston Center
Thu 04:20:35 PM 30.4503 -90.2025 80° East 439 505 35,000  Level Houston Center
Thu 04:21:37 PM 30.4719 -90.0631 80° East 437 503 35,000  Level Houston Center
Thu 04:22:39 PM 30.5172 -89.9039 72° East 433 498 35,000  Level Houston Center
Thu 04:23:41 PM 30.5792 -89.7819 59° Northeast 432 497 35,000  Level Houston Center
Thu 04:24:43 PM 30.6375 -89.6617 61° Northeast 425 489 35,000  Level Houston Center
Thu 04:25:45 PM 30.6967 -89.5411 60° Northeast 427 491 35,000  Level Houston Center
Thu 04:26:47 PM 30.7569 -89.4203 60° Northeast 429 494 35,000  Level Houston Center
Thu 04:27:50 PM 30.8156 -89.2975 61° Northeast 433 498 35,000  Level Houston Center
Thu 04:28:51 PM 30.8767 -89.1742 60° Northeast 438 504 35,000  Level Houston Center
Thu 04:29:54 PM 30.9494 -89.0242 60° Northeast 442 509 35,000  Level Houston Center
Thu 04:30:56 PM 31.0064 -88.9042 61° Northeast 441 507 35,000  Level Houston Center
Thu 04:31:58 PM 31.0675 -88.7786 60° Northeast 441 507 35,000  Level Houston Center
Thu 04:33:00 PM 31.1292 -88.6533 60° Northeast 441 507 35,000  Level Houston Center
Thu 04:34:02 PM 31.1922 -88.5231 60° Northeast 447 514 35,000  Level Houston Center
Thu 04:35:04 PM 31.2544 -88.3992 60° Northeast 445 512 35,000  Level Houston Center
Thu 04:36:06 PM 31.3286 -88.2436 61° Northeast 448 516 35,000  Level Houston Center
Thu 04:37:08 PM 31.3892 -88.1164 61° Northeast 444 511 35,000  Level Houston Center
Thu 04:38:10 PM 31.4481 -87.9897 61° Northeast 440 506 35,000  Level Houston Center
Thu 04:39:13 PM 31.5061 -87.8667 61° Northeast 430 495 35,000  Level Houston Center
Thu 04:40:15 PM 31.5622 -87.7475 61° Northeast 418 481 35,000  Level Houston Center
Thu 04:41:17 PM 31.6186 -87.6272 61° Northeast 418 481 35,000  Level Houston Center
Thu 04:41:56 PM 31.6658 -87.5353 59° Northeast 413 475 35,000  Level Atlanta Center
Thu 04:42:56 PM 31.7211 -87.4203 61° Northeast 407 468 35,000  Level Atlanta Center
Thu 04:43:56 PM 31.7658 -87.3169 63° Northeast 402 463 35,000  Level Atlanta Center
Thu 04:44:56 PM 31.8211 -87.1992 61° Northeast 402 463 35,000  Level Atlanta Center
Thu 04:45:56 PM 31.8719 -87.0811 63° Northeast 402 463 35,000  Level Atlanta Center
Thu 04:46:56 PM 31.9292 -86.9631 60° Northeast 402 463 35,000  Level Atlanta Center
Thu 04:47:56 PM 31.9864 -86.8378 62° Northeast 408 470 35,000  Level Atlanta Center
Thu 04:48:56 PM 32.0539 -86.7000 60° Northeast 424 488 35,000  Level Atlanta Center
Thu 04:49:56 PM 32.1089 -86.5742 63° Northeast 424 488 35,000  Level Atlanta Center
Thu 04:50:56 PM 32.1717 -86.4533 58° Northeast 429 494 35,000  Level Atlanta Center
Thu 04:51:56 PM 32.2222 -86.3319 64° Northeast 416 479 35,000  Level Atlanta Center
Thu 04:52:56 PM 32.2844 -86.2256 55° Northeast 416 479 35,000  Level Atlanta Center
Thu 04:53:56 PM 32.3575 -86.1167 52° Northeast 416 479 35,000  Level Atlanta Center
Thu 04:54:56 PM 32.4344 -86.0078 50° Northeast 421 484 35,000  Level Atlanta Center
Thu 04:55:56 PM 32.5156 -85.8864 52° Northeast 429 494 35,000  Level Atlanta Center
Thu 04:56:56 PM 32.5881 -85.7744 52° Northeast 435 501 35,000  Level Atlanta Center
Thu 04:57:56 PM 32.6606 -85.6647 52° Northeast 435 501 35,000  Level Atlanta Center
Thu 04:58:56 PM 32.7350 -85.5550 51° Northeast 430 495 35,000  Level Atlanta Center
Thu 04:59:56 PM 32.8072 -85.4425 53° Northeast 430 495 35,000 -200 Level Atlanta Center
Thu 05:00:56 PM 32.8817 -85.3375 50° Northeast 425 489 34,600 -700 Descending Atlanta Center
Thu 05:01:56 PM 32.9578 -85.2197 52° Northeast 425 489 33,600 -800 Descending Atlanta Center
Thu 05:02:56 PM 33.0256 -85.1239 50° Northeast 431 496 33,000 -300 Descending Atlanta Center
Thu 05:03:56 PM 33.0994 -85.0083 53° Northeast 431 496 33,000  Level Atlanta Center
Thu 05:04:56 PM 33.1464 -84.8825 66° East 415 478 33,000  Level Atlanta Center
Thu 05:05:56 PM 33.1786 -84.7411 75° East 427 491 33,000  Level Atlanta Center
Thu 05:06:56 PM 33.2128 -84.5975 74° East 442 509 33,000  Level Atlanta Center
Thu 05:07:56 PM 33.2467 -84.4386 76° East 442 509 33,000  Level Atlanta Center
Thu 05:08:56 PM 33.2806 -84.2897 75° East 453 521 33,000  Level Atlanta Center
Thu 05:09:56 PM 33.3119 -84.1433 76° East 453 521 33,000  Level Atlanta Center
Thu 05:10:56 PM 33.3456 -83.9942 75° East 453 521 33,000  Level Atlanta Center
Thu 05:11:56 PM 33.3767 -83.8447 76° East 453 521 33,000  Level Atlanta Center
Thu 05:12:56 PM 33.4075 -83.6953 76° East 453 521 33,000 -350 Level Atlanta Center
Thu 05:13:56 PM 33.4406 -83.5483 75° East 453 521 32,300 -800 Descending Atlanta Center
Thu 05:14:56 PM 33.4753 -83.3939 75° East 453 521 31,400 -950 Descending Atlanta Center
Thu 05:15:56 PM 33.5078 -83.2417 76° East 463 533 30,400 -1,000 Descending Atlanta Center
Thu 05:16:56 PM 33.5400 -83.0867 76° East 478 550 29,400 -950 Descending Atlanta Center
Thu 05:17:56 PM 33.5722 -82.9267 76° East 478 550 28,500 -950 Descending Atlanta Center
Thu 05:18:56 PM 33.6019 -82.7694 77° East 483 556 27,500 -950 Descending Atlanta Center
Thu 05:19:56 PM 33.6336 -82.6092 77° East 488 562 26,600 -850 Descending Atlanta Center
Thu 05:20:56 PM 33.6672 -82.4664 74° East 496 571 25,800 -950 Descending Atlanta Center
Thu 05:21:56 PM 33.7044 -82.2833 76° East 490 564 24,700 -900 Descending Atlanta Center
Thu 05:22:56 PM 33.7375 -82.1278 76° East 490 564 24,000 -2,029 Descending Atlanta Center
Thu 05:25:23 PM 33.8106 -81.7753 76° East 472 543 17,700 -2,696 Descending Jacksonville Center
Thu 05:26:23 PM 33.8383 -81.6325 77° East 453 521 14,700 -2,700 Descending Jacksonville Center
Thu 05:27:23 PM 33.8622 -81.4994 78° East 422 486 12,300 -2,200 Descending Jacksonville Center
Thu 05:28:23 PM 33.8669 -81.3744 87° East 394 453 10,300 -2,000 Descending Jacksonville Center
Thu 05:29:23 PM 33.8614 -81.2669 94° East 353 406 8,300 -2,200 Descending Jacksonville Center
Thu 05:30:23 PM 33.8392 -81.1672 105° East 324 373 5,900 -2,350 Descending Jacksonville Center
Thu 05:31:23 PM 33.8381 -81.0847 91° East 286 329 3,600 -2,300 Descending Jacksonville Center

Login

Don't have an account? Register now (free) for customized features, flight alerts, and more!